sensor_id;sensor_type;location;lat;lon;timestamp;temperature;humidity
41678;DHT22;27364;49.026;8.712;2023-04-25T00:00:34;8.70;99.90
41678;DHT22;27364;49.026;8.712;2023-04-25T00:03:00;8.70;99.90
41678;DHT22;27364;49.026;8.712;2023-04-25T00:05:26;8.60;99.90
41678;DHT22;27364;49.026;8.712;2023-04-25T00:07:52;8.50;99.90
41678;DHT22;27364;49.026;8.712;2023-04-25T00:10:19;8.50;99.90
41678;DHT22;27364;49.026;8.712;2023-04-25T00:12:44;8.50;99.90
41678;DHT22;27364;49.026;8.712;2023-04-25T00:15:11;8.50;99.90
41678;DHT22;27364;49.026;8.712;2023-04-25T00:17:37;8.50;99.90
41678;DHT22;27364;49.026;8.712;2023-04-25T00:20:04;8.50;99.90
41678;DHT22;27364;49.026;8.712;2023-04-25T00:22:30;8.40;99.90
41678;DHT22;27364;49.026;8.712;2023-04-25T00:24:56;8.50;99.90
41678;DHT22;27364;49.026;8.712;2023-04-25T00:27:25;8.50;99.90
41678;DHT22;27364;49.026;8.712;2023-04-25T00:29:51;8.40;99.90
41678;DHT22;27364;49.026;8.712;2023-04-25T00:32:16;8.40;99.90
41678;DHT22;27364;49.026;8.712;2023-04-25T00:34:42;8.30;99.90
41678;DHT22;27364;49.026;8.712;2023-04-25T00:37:07;8.20;99.90
41678;DHT22;27364;49.026;8.712;2023-04-25T00:39:33;8.10;99.90
41678;DHT22;27364;49.026;8.712;2023-04-25T00:41:58;8.00;99.90
41678;DHT22;27364;49.026;8.712;2023-04-25T00:44:24;8.00;99.90
41678;DHT22;27364;49.026;8.712;2023-04-25T00:46:52;8.00;99.90
41678;DHT22;27364;49.026;8.712;2023-04-25T00:49:18;8.00;99.90
41678;DHT22;27364;49.026;8.712;2023-04-25T00:51:44;8.10;99.90
41678;DHT22;27364;49.026;8.712;2023-04-25T00:54:11;8.20;99.90
41678;DHT22;27364;49.026;8.712;2023-04-25T00:56:37;8.20;99.90
41678;DHT22;27364;49.026;8.712;2023-04-25T00:59:03;8.20;99.90
41678;DHT22;27364;49.026;8.712;2023-04-25T01:01:29;8.30;99.90
41678;DHT22;27364;49.026;8.712;2023-04-25T01:03:58;8.30;99.90
41678;DHT22;27364;49.026;8.712;2023-04-25T01:06:24;8.30;99.90
41678;DHT22;27364;49.026;8.712;2023-04-25T01:08:49;8.40;99.90
41678;DHT22;27364;49.026;8.712;2023-04-25T01:11:16;8.30;99.90
41678;DHT22;27364;49.026;8.712;2023-04-25T01:13:41;8.30;99.90
41678;DHT22;27364;49.026;8.712;2023-04-25T01:16:07;8.30;99.90
41678;DHT22;27364;49.026;8.712;2023-04-25T01:18:33;8.20;99.90
41678;DHT22;27364;49.026;8.712;2023-04-25T01:21:11;8.30;99.90
41678;DHT22;27364;49.026;8.712;2023-04-25T01:23:39;8.30;99.90
41678;DHT22;27364;49.026;8.712;2023-04-25T01:26:07;8.30;99.90
41678;DHT22;27364;49.026;8.712;2023-04-25T01:28:33;8.30;99.90
41678;DHT22;27364;49.026;8.712;2023-04-25T01:30:59;8.40;99.90
41678;DHT22;27364;49.026;8.712;2023-04-25T01:33:25;8.40;99.90
41678;DHT22;27364;49.026;8.712;2023-04-25T01:35:51;8.40;99.90
41678;DHT22;27364;49.026;8.712;2023-04-25T01:38:17;8.40;99.90
41678;DHT22;27364;49.026;8.712;2023-04-25T01:40:44;8.50;99.90
41678;DHT22;27364;49.026;8.712;2023-04-25T01:43:10;8.50;99.90
41678;DHT22;27364;49.026;8.712;2023-04-25T01:45:41;8.50;99.90
41678;DHT22;27364;49.026;8.712;2023-04-25T01:48:12;8.60;99.90
41678;DHT22;27364;49.026;8.712;2023-04-25T01:50:38;8.60;99.90
41678;DHT22;27364;49.026;8.712;2023-04-25T01:53:04;8.50;99.90
41678;DHT22;27364;49.026;8.712;2023-04-25T01:55:30;8.50;99.90
41678;DHT22;27364;49.026;8.712;2023-04-25T01:57:56;8.50;99.90
41678;DHT22;27364;49.026;8.712;2023-04-25T02:00:22;8.50;99.90
41678;DHT22;27364;49.026;8.712;2023-04-25T02:02:47;8.50;99.90
41678;DHT22;27364;49.026;8.712;2023-04-25T02:05:13;8.50;99.90
41678;DHT22;27364;49.026;8.712;2023-04-25T02:07:39;8.50;99.90
41678;DHT22;27364;49.026;8.712;2023-04-25T02:10:05;8.60;99.90
41678;DHT22;27364;49.026;8.712;2023-04-25T02:12:31;8.50;99.90
41678;DHT22;27364;49.026;8.712;2023-04-25T02:14:57;8.50;99.90
41678;DHT22;27364;49.026;8.712;2023-04-25T02:17:22;8.50;99.90
41678;DHT22;27364;49.026;8.712;2023-04-25T02:19:48;8.50;99.90
41678;DHT22;27364;49.026;8.712;2023-04-25T02:22:14;8.50;99.90
41678;DHT22;27364;49.026;8.712;2023-04-25T02:24:39;8.50;99.90
41678;DHT22;27364;49.026;8.712;2023-04-25T02:27:05;8.40;99.90
41678;DHT22;27364;49.026;8.712;2023-04-25T02:29:31;8.50;99.90
41678;DHT22;27364;49.026;8.712;2023-04-25T02:31:56;8.50;99.90
41678;DHT22;27364;49.026;8.712;2023-04-25T02:34:22;8.50;99.90
41678;DHT22;27364;49.026;8.712;2023-04-25T02:36:48;8.50;99.90
41678;DHT22;27364;49.026;8.712;2023-04-25T02:39:16;8.50;99.90
41678;DHT22;27364;49.026;8.712;2023-04-25T02:41:41;8.50;99.90
41678;DHT22;27364;49.026;8.712;2023-04-25T02:44:07;8.50;99.90
41678;DHT22;27364;49.026;8.712;2023-04-25T02:46:33;8.50;99.90
41678;DHT22;27364;49.026;8.712;2023-04-25T02:48:58;8.50;99.90
41678;DHT22;27364;49.026;8.712;2023-04-25T02:51:24;8.60;99.90
41678;DHT22;27364;49.026;8.712;2023-04-25T02:53:49;8.60;99.90
41678;DHT22;27364;49.026;8.712;2023-04-25T02:56:15;8.60;99.90
41678;DHT22;27364;49.026;8.712;2023-04-25T02:58:40;8.50;99.90
41678;DHT22;27364;49.026;8.712;2023-04-25T03:01:06;8.50;99.90
41678;DHT22;27364;49.026;8.712;2023-04-25T03:03:31;8.50;99.90
41678;DHT22;27364;49.026;8.712;2023-04-25T03:05:57;8.50;99.90
41678;DHT22;27364;49.026;8.712;2023-04-25T03:08:22;8.40;99.90
41678;DHT22;27364;49.026;8.712;2023-04-25T03:10:48;8.40;99.90
41678;DHT22;27364;49.026;8.712;2023-04-25T03:13:15;8.30;99.90
41678;DHT22;27364;49.026;8.712;2023-04-25T03:15:41;8.30;99.90
41678;DHT22;27364;49.026;8.712;2023-04-25T03:18:07;8.30;99.90
41678;DHT22;27364;49.026;8.712;2023-04-25T03:20:33;8.30;99.90
41678;DHT22;27364;49.026;8.712;2023-04-25T03:22:58;8.30;99.90
41678;DHT22;27364;49.026;8.712;2023-04-25T03:25:24;8.30;99.90
41678;DHT22;27364;49.026;8.712;2023-04-25T03:27:49;8.20;99.90
41678;DHT22;27364;49.026;8.712;2023-04-25T03:30:15;8.20;99.90
41678;DHT22;27364;49.026;8.712;2023-04-25T03:32:40;8.20;99.90
41678;DHT22;27364;49.026;8.712;2023-04-25T03:35:06;8.20;99.90
41678;DHT22;27364;49.026;8.712;2023-04-25T03:37:32;8.10;99.90
41678;DHT22;27364;49.026;8.712;2023-04-25T03:39:57;8.20;99.90
41678;DHT22;27364;49.026;8.712;2023-04-25T03:42:23;8.10;99.90
41678;DHT22;27364;49.026;8.712;2023-04-25T03:44:52;8.10;99.90
41678;DHT22;27364;49.026;8.712;2023-04-25T03:47:17;8.10;99.90
41678;DHT22;27364;49.026;8.712;2023-04-25T03:49:43;8.10;99.90
41678;DHT22;27364;49.026;8.712;2023-04-25T03:52:09;8.10;99.90
41678;DHT22;27364;49.026;8.712;2023-04-25T03:54:35;8.10;99.90
41678;DHT22;27364;49.026;8.712;2023-04-25T03:57:00;8.10;99.90
41678;DHT22;27364;49.026;8.712;2023-04-25T03:59:26;8.00;99.90
41678;DHT22;27364;49.026;8.712;2023-04-25T04:01:52;8.00;99.90
41678;DHT22;27364;49.026;8.712;2023-04-25T04:04:18;8.00;99.90
41678;DHT22;27364;49.026;8.712;2023-04-25T04:06:43;8.00;99.90
41678;DHT22;27364;49.026;8.712;2023-04-25T04:09:09;7.90;99.90
41678;DHT22;27364;49.026;8.712;2023-04-25T04:11:37;7.90;99.90
41678;DHT22;27364;49.026;8.712;2023-04-25T04:14:06;7.90;99.90
41678;DHT22;27364;49.026;8.712;2023-04-25T04:16:32;7.90;99.90
41678;DHT22;27364;49.026;8.712;2023-04-25T04:18:57;7.90;99.90
41678;DHT22;27364;49.026;8.712;2023-04-25T04:21:23;7.90;99.90
41678;DHT22;27364;49.026;8.712;2023-04-25T04:23:48;7.90;99.90
41678;DHT22;27364;49.026;8.712;2023-04-25T04:26:14;7.90;99.90
41678;DHT22;27364;49.026;8.712;2023-04-25T04:28:42;7.90;99.90
41678;DHT22;27364;49.026;8.712;2023-04-25T04:31:09;7.90;99.90
41678;DHT22;27364;49.026;8.712;2023-04-25T04:33:35;7.90;99.90
41678;DHT22;27364;49.026;8.712;2023-04-25T04:36:02;7.90;99.90
41678;DHT22;27364;49.026;8.712;2023-04-25T04:38:28;7.90;99.90
41678;DHT22;27364;49.026;8.712;2023-04-25T04:40:54;8.00;99.90
41678;DHT22;27364;49.026;8.712;2023-04-25T04:43:19;8.00;99.90
41678;DHT22;27364;49.026;8.712;2023-04-25T04:45:45;8.10;99.90
41678;DHT22;27364;49.026;8.712;2023-04-25T04:48:11;8.10;99.90
41678;DHT22;27364;49.026;8.712;2023-04-25T04:50:39;8.00;99.90
41678;DHT22;27364;49.026;8.712;2023-04-25T04:53:05;8.10;99.90
41678;DHT22;27364;49.026;8.712;2023-04-25T04:55:31;8.10;99.90
41678;DHT22;27364;49.026;8.712;2023-04-25T04:57:56;8.10;99.90
41678;DHT22;27364;49.026;8.712;2023-04-25T05:00:22;8.10;99.90
41678;DHT22;27364;49.026;8.712;2023-04-25T05:02:47;8.10;99.90
41678;DHT22;27364;49.026;8.712;2023-04-25T05:05:13;8.10;99.90
41678;DHT22;27364;49.026;8.712;2023-04-25T05:07:38;8.10;99.90
41678;DHT22;27364;49.026;8.712;2023-04-25T05:10:04;8.10;99.90
41678;DHT22;27364;49.026;8.712;2023-04-25T05:12:30;8.10;99.90
41678;DHT22;27364;49.026;8.712;2023-04-25T05:14:56;8.10;99.90
41678;DHT22;27364;49.026;8.712;2023-04-25T05:17:21;8.10;99.90
41678;DHT22;27364;49.026;8.712;2023-04-25T05:19:47;8.00;99.90
41678;DHT22;27364;49.026;8.712;2023-04-25T05:22:12;8.00;99.90
41678;DHT22;27364;49.026;8.712;2023-04-25T05:24:38;8.10;99.90
41678;DHT22;27364;49.026;8.712;2023-04-25T05:27:04;8.10;99.90
41678;DHT22;27364;49.026;8.712;2023-04-25T05:29:30;8.10;99.90
41678;DHT22;27364;49.026;8.712;2023-04-25T05:31:56;8.20;99.90
41678;DHT22;27364;49.026;8.712;2023-04-25T05:34:21;8.20;99.90
41678;DHT22;27364;49.026;8.712;2023-04-25T05:36:47;8.30;99.90
41678;DHT22;27364;49.026;8.712;2023-04-25T05:39:17;8.30;99.90
41678;DHT22;27364;49.026;8.712;2023-04-25T05:41:43;8.40;99.90
41678;DHT22;27364;49.026;8.712;2023-04-25T05:44:09;8.40;99.90
41678;DHT22;27364;49.026;8.712;2023-04-25T05:46:35;8.50;99.90
41678;DHT22;27364;49.026;8.712;2023-04-25T05:49:00;8.50;99.90
41678;DHT22;27364;49.026;8.712;2023-04-25T05:51:26;8.50;99.90
41678;DHT22;27364;49.026;8.712;2023-04-25T05:53:52;8.50;99.90
41678;DHT22;27364;49.026;8.712;2023-04-25T05:56:18;8.60;99.90
41678;DHT22;27364;49.026;8.712;2023-04-25T05:58:43;8.60;99.90
41678;DHT22;27364;49.026;8.712;2023-04-25T06:01:09;8.70;99.90
41678;DHT22;27364;49.026;8.712;2023-04-25T06:03:35;8.80;99.90
41678;DHT22;27364;49.026;8.712;2023-04-25T06:06:00;8.80;99.90
41678;DHT22;27364;49.026;8.712;2023-04-25T06:08:26;8.90;99.90
41678;DHT22;27364;49.026;8.712;2023-04-25T06:10:51;9.00;99.90
41678;DHT22;27364;49.026;8.712;2023-04-25T06:13:17;9.10;99.90
41678;DHT22;27364;49.026;8.712;2023-04-25T06:15:42;9.10;99.90
41678;DHT22;27364;49.026;8.712;2023-04-25T06:18:08;9.20;99.90
41678;DHT22;27364;49.026;8.712;2023-04-25T06:20:34;9.20;99.90
41678;DHT22;27364;49.026;8.712;2023-04-25T06:22:59;9.20;99.90
41678;DHT22;27364;49.026;8.712;2023-04-25T06:25:25;9.30;99.90
41678;DHT22;27364;49.026;8.712;2023-04-25T06:27:50;9.40;99.90
41678;DHT22;27364;49.026;8.712;2023-04-25T06:30:16;9.40;99.90
41678;DHT22;27364;49.026;8.712;2023-04-25T06:32:43;9.50;99.90
41678;DHT22;27364;49.026;8.712;2023-04-25T06:35:09;9.40;99.90
41678;DHT22;27364;49.026;8.712;2023-04-25T06:37:35;9.40;99.90
41678;DHT22;27364;49.026;8.712;2023-04-25T06:40:01;9.40;99.90
41678;DHT22;27364;49.026;8.712;2023-04-25T06:42:27;9.40;99.90
41678;DHT22;27364;49.026;8.712;2023-04-25T06:44:53;9.30;99.90
41678;DHT22;27364;49.026;8.712;2023-04-25T06:47:18;9.30;99.90
41678;DHT22;27364;49.026;8.712;2023-04-25T06:49:44;9.20;99.90
41678;DHT22;27364;49.026;8.712;2023-04-25T06:52:10;9.20;99.90
41678;DHT22;27364;49.026;8.712;2023-04-25T06:54:36;9.10;99.90
41678;DHT22;27364;49.026;8.712;2023-04-25T06:57:01;9.10;99.90
41678;DHT22;27364;49.026;8.712;2023-04-25T06:59:27;9.10;99.90
41678;DHT22;27364;49.026;8.712;2023-04-25T07:01:52;9.10;99.90
41678;DHT22;27364;49.026;8.712;2023-04-25T07:04:18;9.10;99.90
41678;DHT22;27364;49.026;8.712;2023-04-25T07:06:43;9.10;99.90
41678;DHT22;27364;49.026;8.712;2023-04-25T07:09:09;9.10;99.90
41678;DHT22;27364;49.026;8.712;2023-04-25T07:11:35;9.00;99.90
41678;DHT22;27364;49.026;8.712;2023-04-25T07:14:01;9.00;99.90
41678;DHT22;27364;49.026;8.712;2023-04-25T07:16:27;9.00;99.90
41678;DHT22;27364;49.026;8.712;2023-04-25T07:18:53;9.10;99.90
41678;DHT22;27364;49.026;8.712;2023-04-25T07:21:18;9.10;99.90
41678;DHT22;27364;49.026;8.712;2023-04-25T07:23:44;9.10;99.90
41678;DHT22;27364;49.026;8.712;2023-04-25T07:26:09;9.10;99.90
41678;DHT22;27364;49.026;8.712;2023-04-25T07:28:35;9.10;99.90
41678;DHT22;27364;49.026;8.712;2023-04-25T07:31:00;9.00;99.90
41678;DHT22;27364;49.026;8.712;2023-04-25T07:33:27;9.00;99.90
41678;DHT22;27364;49.026;8.712;2023-04-25T07:35:53;9.00;99.90
41678;DHT22;27364;49.026;8.712;2023-04-25T07:38:18;9.00;99.90
41678;DHT22;27364;49.026;8.712;2023-04-25T07:40:44;9.10;99.90
41678;DHT22;27364;49.026;8.712;2023-04-25T07:43:09;9.00;99.90
41678;DHT22;27364;49.026;8.712;2023-04-25T07:45:37;9.00;99.90
41678;DHT22;27364;49.026;8.712;2023-04-25T07:48:03;9.10;99.90
41678;DHT22;27364;49.026;8.712;2023-04-25T07:50:28;9.00;99.90
41678;DHT22;27364;49.026;8.712;2023-04-25T07:52:54;9.00;99.90
41678;DHT22;27364;49.026;8.712;2023-04-25T07:55:19;9.00;99.90
41678;DHT22;27364;49.026;8.712;2023-04-25T07:57:45;9.00;99.90
41678;DHT22;27364;49.026;8.712;2023-04-25T08:00:11;9.00;99.90
41678;DHT22;27364;49.026;8.712;2023-04-25T08:02:37;9.10;99.90
41678;DHT22;27364;49.026;8.712;2023-04-25T08:05:03;9.00;99.90
41678;DHT22;27364;49.026;8.712;2023-04-25T08:07:28;9.00;99.90
41678;DHT22;27364;49.026;8.712;2023-04-25T08:09:54;9.00;99.90
41678;DHT22;27364;49.026;8.712;2023-04-25T08:12:20;9.00;99.90
41678;DHT22;27364;49.026;8.712;2023-04-25T08:14:45;9.00;99.90
41678;DHT22;27364;49.026;8.712;2023-04-25T08:17:11;8.90;99.90
41678;DHT22;27364;49.026;8.712;2023-04-25T08:19:36;8.90;99.90
41678;DHT22;27364;49.026;8.712;2023-04-25T08:22:03;9.00;99.90
41678;DHT22;27364;49.026;8.712;2023-04-25T08:24:28;9.00;99.90
41678;DHT22;27364;49.026;8.712;2023-04-25T08:26:54;9.10;99.90
41678;DHT22;27364;49.026;8.712;2023-04-25T08:29:19;9.20;99.90
41678;DHT22;27364;49.026;8.712;2023-04-25T08:31:45;9.20;99.90
41678;DHT22;27364;49.026;8.712;2023-04-25T08:34:10;9.30;99.90
41678;DHT22;27364;49.026;8.712;2023-04-25T08:36:36;9.20;99.90
41678;DHT22;27364;49.026;8.712;2023-04-25T08:39:02;9.20;99.90
41678;DHT22;27364;49.026;8.712;2023-04-25T08:41:28;9.10;99.90
41678;DHT22;27364;49.026;8.712;2023-04-25T08:43:56;9.20;99.90
41678;DHT22;27364;49.026;8.712;2023-04-25T08:46:23;9.10;99.90
41678;DHT22;27364;49.026;8.712;2023-04-25T08:48:49;9.10;99.90
41678;DHT22;27364;49.026;8.712;2023-04-25T08:51:21;9.10;99.90
41678;DHT22;27364;49.026;8.712;2023-04-25T08:53:51;9.00;99.90
41678;DHT22;27364;49.026;8.712;2023-04-25T08:56:17;9.00;99.90
41678;DHT22;27364;49.026;8.712;2023-04-25T08:58:44;9.00;99.90
41678;DHT22;27364;49.026;8.712;2023-04-25T09:01:11;8.90;99.90
41678;DHT22;27364;49.026;8.712;2023-04-25T09:03:36;9.00;99.90
41678;DHT22;27364;49.026;8.712;2023-04-25T09:06:03;8.90;99.90
41678;DHT22;27364;49.026;8.712;2023-04-25T09:08:29;8.90;99.90
41678;DHT22;27364;49.026;8.712;2023-04-25T09:10:55;8.70;99.90
41678;DHT22;27364;49.026;8.712;2023-04-25T09:13:26;8.40;99.90
41678;DHT22;27364;49.026;8.712;2023-04-25T09:15:53;8.20;99.90
41678;DHT22;27364;49.026;8.712;2023-04-25T09:18:27;8.10;99.90
41678;DHT22;27364;49.026;8.712;2023-04-25T09:21:07;7.90;99.90
41678;DHT22;27364;49.026;8.712;2023-04-25T09:23:45;8.00;99.90
41678;DHT22;27364;49.026;8.712;2023-04-25T09:26:17;7.90;99.90
41678;DHT22;27364;49.026;8.712;2023-04-25T09:28:43;7.80;99.90
41678;DHT22;27364;49.026;8.712;2023-04-25T09:31:12;7.80;99.90
41678;DHT22;27364;49.026;8.712;2023-04-25T09:33:46;7.80;99.90
41678;DHT22;27364;49.026;8.712;2023-04-25T09:36:11;7.70;99.90
41678;DHT22;27364;49.026;8.712;2023-04-25T09:38:41;7.70;99.90
41678;DHT22;27364;49.026;8.712;2023-04-25T09:41:08;7.70;99.90
41678;DHT22;27364;49.026;8.712;2023-04-25T09:43:33;7.70;99.90
41678;DHT22;27364;49.026;8.712;2023-04-25T09:46:00;7.60;99.90
41678;DHT22;27364;49.026;8.712;2023-04-25T09:48:27;7.50;99.90
41678;DHT22;27364;49.026;8.712;2023-04-25T09:51:12;7.50;99.90
41678;DHT22;27364;49.026;8.712;2023-04-25T09:53:43;7.50;99.90
41678;DHT22;27364;49.026;8.712;2023-04-25T09:56:10;7.50;99.90
41678;DHT22;27364;49.026;8.712;2023-04-25T09:58:40;7.50;99.90
41678;DHT22;27364;49.026;8.712;2023-04-25T10:01:08;7.50;99.90
41678;DHT22;27364;49.026;8.712;2023-04-25T10:03:36;7.50;99.90
41678;DHT22;27364;49.026;8.712;2023-04-25T10:06:04;7.50;99.90
41678;DHT22;27364;49.026;8.712;2023-04-25T10:08:37;7.50;99.90
41678;DHT22;27364;49.026;8.712;2023-04-25T10:11:05;7.50;99.90
41678;DHT22;27364;49.026;8.712;2023-04-25T10:13:32;7.60;99.90
41678;DHT22;27364;49.026;8.712;2023-04-25T10:15:59;7.70;99.90
41678;DHT22;27364;49.026;8.712;2023-04-25T10:18:26;7.70;99.90
41678;DHT22;27364;49.026;8.712;2023-04-25T10:21:04;7.70;99.90
41678;DHT22;27364;49.026;8.712;2023-04-25T10:23:31;7.80;99.90
41678;DHT22;27364;49.026;8.712;2023-04-25T10:25:57;7.80;99.90
41678;DHT22;27364;49.026;8.712;2023-04-25T10:28:23;7.80;99.90
41678;DHT22;27364;49.026;8.712;2023-04-25T10:30:59;7.90;99.90
41678;DHT22;27364;49.026;8.712;2023-04-25T10:33:39;7.90;99.90
41678;DHT22;27364;49.026;8.712;2023-04-25T10:36:19;7.90;99.90
41678;DHT22;27364;49.026;8.712;2023-04-25T10:38:49;7.90;99.90
41678;DHT22;27364;49.026;8.712;2023-04-25T10:41:20;7.90;99.90
41678;DHT22;27364;49.026;8.712;2023-04-25T10:43:47;7.90;99.90
41678;DHT22;27364;49.026;8.712;2023-04-25T10:48:46;8.00;99.90
41678;DHT22;27364;49.026;8.712;2023-04-25T10:51:24;8.00;99.90
41678;DHT22;27364;49.026;8.712;2023-04-25T10:54:07;8.00;99.90
41678;DHT22;27364;49.026;8.712;2023-04-25T10:56:37;8.00;99.90
41678;DHT22;27364;49.026;8.712;2023-04-25T10:59:14;8.10;99.90
41678;DHT22;27364;49.026;8.712;2023-04-25T11:01:42;8.10;99.90
41678;DHT22;27364;49.026;8.712;2023-04-25T11:04:29;8.10;99.90
41678;DHT22;27364;49.026;8.712;2023-04-25T11:07:23;8.10;99.90
41678;DHT22;27364;49.026;8.712;2023-04-25T11:09:49;8.30;99.90
41678;DHT22;27364;49.026;8.712;2023-04-25T11:12:14;8.40;99.90
41678;DHT22;27364;49.026;8.712;2023-04-25T11:14:41;8.50;99.90
41678;DHT22;27364;49.026;8.712;2023-04-25T11:17:07;8.50;99.90
41678;DHT22;27364;49.026;8.712;2023-04-25T11:19:32;8.50;99.90
41678;DHT22;27364;49.026;8.712;2023-04-25T11:21:59;8.50;99.90
41678;DHT22;27364;49.026;8.712;2023-04-25T11:24:29;8.60;99.90
41678;DHT22;27364;49.026;8.712;2023-04-25T11:26:55;8.70;99.90
41678;DHT22;27364;49.026;8.712;2023-04-25T11:29:26;8.70;99.90
41678;DHT22;27364;49.026;8.712;2023-04-25T11:31:52;8.70;99.90
41678;DHT22;27364;49.026;8.712;2023-04-25T11:34:19;8.70;99.90
41678;DHT22;27364;49.026;8.712;2023-04-25T11:36:45;8.60;99.90
41678;DHT22;27364;49.026;8.712;2023-04-25T11:39:11;8.50;99.90
41678;DHT22;27364;49.026;8.712;2023-04-25T11:41:37;8.50;99.90
41678;DHT22;27364;49.026;8.712;2023-04-25T11:44:04;8.50;99.90
41678;DHT22;27364;49.026;8.712;2023-04-25T11:46:30;8.50;99.90
41678;DHT22;27364;49.026;8.712;2023-04-25T11:48:56;8.50;99.90
41678;DHT22;27364;49.026;8.712;2023-04-25T11:51:22;8.50;99.90
41678;DHT22;27364;49.026;8.712;2023-04-25T11:53:47;8.60;99.90
41678;DHT22;27364;49.026;8.712;2023-04-25T11:56:13;8.80;99.90
41678;DHT22;27364;49.026;8.712;2023-04-25T11:58:58;8.90;99.90
41678;DHT22;27364;49.026;8.712;2023-04-25T12:01:33;9.00;99.90
41678;DHT22;27364;49.026;8.712;2023-04-25T12:04:09;9.00;99.90
41678;DHT22;27364;49.026;8.712;2023-04-25T12:06:37;9.10;99.90
41678;DHT22;27364;49.026;8.712;2023-04-25T12:09:07;9.10;99.90
41678;DHT22;27364;49.026;8.712;2023-04-25T12:11:44;9.10;99.90
41678;DHT22;27364;49.026;8.712;2023-04-25T12:14:10;9.10;99.90
41678;DHT22;27364;49.026;8.712;2023-04-25T12:16:43;9.00;99.90
41678;DHT22;27364;49.026;8.712;2023-04-25T12:19:09;9.00;99.90
41678;DHT22;27364;49.026;8.712;2023-04-25T12:21:35;9.10;99.90
41678;DHT22;27364;49.026;8.712;2023-04-25T12:27:10;9.20;99.90
41678;DHT22;27364;49.026;8.712;2023-04-25T12:29:35;9.50;99.90
41678;DHT22;27364;49.026;8.712;2023-04-25T12:32:01;9.60;99.90
41678;DHT22;27364;49.026;8.712;2023-04-25T12:34:29;9.70;99.90
41678;DHT22;27364;49.026;8.712;2023-04-25T12:36:56;9.80;99.90
41678;DHT22;27364;49.026;8.712;2023-04-25T12:39:24;9.70;99.90
41678;DHT22;27364;49.026;8.712;2023-04-25T12:41:53;9.80;99.90
41678;DHT22;27364;49.026;8.712;2023-04-25T12:44:21;10.20;99.90
41678;DHT22;27364;49.026;8.712;2023-04-25T12:46:48;10.50;99.90
41678;DHT22;27364;49.026;8.712;2023-04-25T12:49:13;10.90;99.90
41678;DHT22;27364;49.026;8.712;2023-04-25T12:51:40;11.40;99.90
41678;DHT22;27364;49.026;8.712;2023-04-25T12:54:06;11.60;99.90
41678;DHT22;27364;49.026;8.712;2023-04-25T12:56:34;11.90;99.90
41678;DHT22;27364;49.026;8.712;2023-04-25T12:58:59;11.50;99.90
41678;DHT22;27364;49.026;8.712;2023-04-25T13:01:25;11.30;99.90
41678;DHT22;27364;49.026;8.712;2023-04-25T13:03:51;11.10;99.90
41678;DHT22;27364;49.026;8.712;2023-04-25T13:06:18;11.00;99.90
41678;DHT22;27364;49.026;8.712;2023-04-25T13:08:44;10.80;99.90
41678;DHT22;27364;49.026;8.712;2023-04-25T13:11:10;10.70;99.90
41678;DHT22;27364;49.026;8.712;2023-04-25T13:13:37;10.60;99.90
41678;DHT22;27364;49.026;8.712;2023-04-25T13:16:04;10.50;99.90
41678;DHT22;27364;49.026;8.712;2023-04-25T13:18:30;10.50;99.90
41678;DHT22;27364;49.026;8.712;2023-04-25T13:20:56;10.40;99.90
41678;DHT22;27364;49.026;8.712;2023-04-25T13:23:22;10.40;99.90
41678;DHT22;27364;49.026;8.712;2023-04-25T13:25:47;10.40;99.90
41678;DHT22;27364;49.026;8.712;2023-04-25T13:28:13;10.30;99.90
41678;DHT22;27364;49.026;8.712;2023-04-25T13:30:40;10.10;99.90
41678;DHT22;27364;49.026;8.712;2023-04-25T13:33:05;10.00;99.90
41678;DHT22;27364;49.026;8.712;2023-04-25T13:35:33;9.80;99.90
41678;DHT22;27364;49.026;8.712;2023-04-25T13:37:59;9.70;99.90
41678;DHT22;27364;49.026;8.712;2023-04-25T13:40:25;9.70;99.90
41678;DHT22;27364;49.026;8.712;2023-04-25T13:42:50;9.60;99.90
41678;DHT22;27364;49.026;8.712;2023-04-25T13:45:16;9.60;99.90
41678;DHT22;27364;49.026;8.712;2023-04-25T13:47:42;9.50;99.90
41678;DHT22;27364;49.026;8.712;2023-04-25T13:50:08;9.70;99.90
41678;DHT22;27364;49.026;8.712;2023-04-25T13:52:33;9.80;99.90
41678;DHT22;27364;49.026;8.712;2023-04-25T13:54:59;9.80;99.90
41678;DHT22;27364;49.026;8.712;2023-04-25T13:57:25;9.80;99.90
41678;DHT22;27364;49.026;8.712;2023-04-25T13:59:51;9.80;99.90
41678;DHT22;27364;49.026;8.712;2023-04-25T14:02:16;9.80;99.90
41678;DHT22;27364;49.026;8.712;2023-04-25T14:04:42;9.80;99.90
41678;DHT22;27364;49.026;8.712;2023-04-25T14:07:08;9.90;99.90
41678;DHT22;27364;49.026;8.712;2023-04-25T14:09:33;9.90;99.90
41678;DHT22;27364;49.026;8.712;2023-04-25T14:11:59;10.00;99.90
41678;DHT22;27364;49.026;8.712;2023-04-25T14:14:25;10.40;99.90
41678;DHT22;27364;49.026;8.712;2023-04-25T14:16:51;11.10;99.90
41678;DHT22;27364;49.026;8.712;2023-04-25T14:19:19;12.00;99.90
41678;DHT22;27364;49.026;8.712;2023-04-25T14:21:45;12.60;99.90
41678;DHT22;27364;49.026;8.712;2023-04-25T14:24:13;12.70;99.90
41678;DHT22;27364;49.026;8.712;2023-04-25T14:26:39;12.40;99.90
41678;DHT22;27364;49.026;8.712;2023-04-25T14:29:05;12.40;99.90
41678;DHT22;27364;49.026;8.712;2023-04-25T14:31:31;12.30;99.90
41678;DHT22;27364;49.026;8.712;2023-04-25T14:33:57;12.20;99.90
41678;DHT22;27364;49.026;8.712;2023-04-25T14:36:23;12.10;99.90
41678;DHT22;27364;49.026;8.712;2023-04-25T14:38:48;12.00;99.90
41678;DHT22;27364;49.026;8.712;2023-04-25T14:41:14;11.80;99.90
41678;DHT22;27364;49.026;8.712;2023-04-25T14:43:39;11.70;99.90
41678;DHT22;27364;49.026;8.712;2023-04-25T14:46:06;11.80;99.90
41678;DHT22;27364;49.026;8.712;2023-04-25T14:48:32;12.30;99.90
41678;DHT22;27364;49.026;8.712;2023-04-25T14:50:59;12.90;99.90
41678;DHT22;27364;49.026;8.712;2023-04-25T14:53:25;12.80;99.90
41678;DHT22;27364;49.026;8.712;2023-04-25T14:55:50;12.40;99.90
41678;DHT22;27364;49.026;8.712;2023-04-25T14:58:16;12.10;99.90
41678;DHT22;27364;49.026;8.712;2023-04-25T15:00:42;12.00;99.90
41678;DHT22;27364;49.026;8.712;2023-04-25T15:03:09;12.00;99.90
41678;DHT22;27364;49.026;8.712;2023-04-25T15:05:37;11.80;99.90
41678;DHT22;27364;49.026;8.712;2023-04-25T15:08:02;11.40;99.90
41678;DHT22;27364;49.026;8.712;2023-04-25T15:10:28;11.20;99.90
41678;DHT22;27364;49.026;8.712;2023-04-25T15:12:54;11.10;99.90
41678;DHT22;27364;49.026;8.712;2023-04-25T15:15:19;11.00;99.90
41678;DHT22;27364;49.026;8.712;2023-04-25T15:17:45;10.70;99.90
41678;DHT22;27364;49.026;8.712;2023-04-25T15:20:12;10.50;99.90
41678;DHT22;27364;49.026;8.712;2023-04-25T15:22:40;10.40;99.90
41678;DHT22;27364;49.026;8.712;2023-04-25T15:25:06;10.30;99.90
41678;DHT22;27364;49.026;8.712;2023-04-25T15:27:33;10.30;99.90
41678;DHT22;27364;49.026;8.712;2023-04-25T15:29:59;10.30;99.90
41678;DHT22;27364;49.026;8.712;2023-04-25T15:32:25;10.30;99.90
41678;DHT22;27364;49.026;8.712;2023-04-25T15:34:51;10.30;99.90
41678;DHT22;27364;49.026;8.712;2023-04-25T15:37:16;10.40;99.90
41678;DHT22;27364;49.026;8.712;2023-04-25T15:39:44;10.60;99.90
41678;DHT22;27364;49.026;8.712;2023-04-25T15:42:09;10.60;99.90
41678;DHT22;27364;49.026;8.712;2023-04-25T15:44:35;10.70;99.90